Harleston, United Kingdom
Current Conditions -  °F | °C
As of 2:50 AM on Wednesday 26 Nov 2014 (Local Time) from EGSH Reporting Station
Moderate Rain Moderate Rain  
Wind Chill: 42°   Ceiling: 1500
Heat Index: 46°   Visibility: 6mi
Dew Point: 46°   Wind: 9mph
Humidity: 100%   Direction: 70°ENE
Pressure: 29.97"   Gusts: NA
Location:  52.4°N, 1.3°E
Report Text: EGSH 260250Z AUTO 07008KT 9999 RA BKN015/// 08/08 Q1015
Loading
Personal Weather Stations






























Interactive Weather Map New forecast layout! Learn more

10-Day Weather Forecast

Advertisements
Track Severe Weather on mobile